sensor_id;sensor_type;location;lat;lon;timestamp;temperature;humidity
12115;DHT22;6121;49.810;6.418;2024-02-28T00:01:38;4.50;99.90
12115;DHT22;6121;49.810;6.418;2024-02-28T00:04:04;4.50;99.90
12115;DHT22;6121;49.810;6.418;2024-02-28T00:06:30;4.50;99.90
12115;DHT22;6121;49.810;6.418;2024-02-28T00:08:55;4.50;99.90
12115;DHT22;6121;49.810;6.418;2024-02-28T00:11:21;4.50;99.90
12115;DHT22;6121;49.810;6.418;2024-02-28T00:16:14;4.60;99.90
12115;DHT22;6121;49.810;6.418;2024-02-28T00:18:40;4.70;99.90
12115;DHT22;6121;49.810;6.418;2024-02-28T00:21:06;4.50;99.90
12115;DHT22;6121;49.810;6.418;2024-02-28T00:23:32;4.70;99.90
12115;DHT22;6121;49.810;6.418;2024-02-28T00:28:33;4.70;99.90
12115;DHT22;6121;49.810;6.418;2024-02-28T00:30:59;4.60;99.90
12115;DHT22;6121;49.810;6.418;2024-02-28T00:33:25;4.70;99.90
12115;DHT22;6121;49.810;6.418;2024-02-28T00:35:51;4.60;99.90
12115;DHT22;6121;49.810;6.418;2024-02-28T00:38:19;4.60;99.90
12115;DHT22;6121;49.810;6.418;2024-02-28T00:40:45;4.70;99.90
12115;DHT22;6121;49.810;6.418;2024-02-28T00:43:10;5.10;99.90
12115;DHT22;6121;49.810;6.418;2024-02-28T00:48:03;4.70;99.90
12115;DHT22;6121;49.810;6.418;2024-02-28T00:50:29;4.60;99.90
12115;DHT22;6121;49.810;6.418;2024-02-28T00:52:54;4.60;99.90
12115;DHT22;6121;49.810;6.418;2024-02-28T00:55:20;4.80;99.90
12115;DHT22;6121;49.810;6.418;2024-02-28T00:57:46;4.70;99.90
12115;DHT22;6121;49.810;6.418;2024-02-28T01:00:12;4.60;99.90
12115;DHT22;6121;49.810;6.418;2024-02-28T01:07:33;4.80;99.90
12115;DHT22;6121;49.810;6.418;2024-02-28T01:09:59;4.80;99.90
12115;DHT22;6121;49.810;6.418;2024-02-28T01:12:25;4.80;99.90
12115;DHT22;6121;49.810;6.418;2024-02-28T01:14:51;4.90;99.90
12115;DHT22;6121;49.810;6.418;2024-02-28T01:17:17;4.90;99.90
12115;DHT22;6121;49.810;6.418;2024-02-28T01:19:43;4.90;99.90
12115;DHT22;6121;49.810;6.418;2024-02-28T01:22:09;5.00;99.90
12115;DHT22;6121;49.810;6.418;2024-02-28T01:24:34;5.00;99.90
12115;DHT22;6121;49.810;6.418;2024-02-28T01:27:01;4.90;99.90
12115;DHT22;6121;49.810;6.418;2024-02-28T01:29:26;4.90;99.90
12115;DHT22;6121;49.810;6.418;2024-02-28T01:31:52;4.90;99.90
12115;DHT22;6121;49.810;6.418;2024-02-28T01:34:18;4.90;99.90
12115;DHT22;6121;49.810;6.418;2024-02-28T01:39:11;5.20;99.90
12115;DHT22;6121;49.810;6.418;2024-02-28T01:41:36;4.90;99.90
12115;DHT22;6121;49.810;6.418;2024-02-28T01:44:02;4.90;99.90
12115;DHT22;6121;49.810;6.418;2024-02-28T01:46:29;4.90;99.90
12115;DHT22;6121;49.810;6.418;2024-02-28T01:48:55;4.80;99.90
12115;DHT22;6121;49.810;6.418;2024-02-28T01:51:24;5.00;99.90
12115;DHT22;6121;49.810;6.418;2024-02-28T01:53:52;4.90;99.90
12115;DHT22;6121;49.810;6.418;2024-02-28T01:56:20;5.00;99.90
12115;DHT22;6121;49.810;6.418;2024-02-28T01:58:47;5.10;99.90
12115;DHT22;6121;49.810;6.418;2024-02-28T02:01:14;4.90;99.90
12115;DHT22;6121;49.810;6.418;2024-02-28T02:03:44;4.90;99.90
12115;DHT22;6121;49.810;6.418;2024-02-28T02:06:10;4.90;99.90
12115;DHT22;6121;49.810;6.418;2024-02-28T02:11:04;4.90;99.90
12115;DHT22;6121;49.810;6.418;2024-02-28T02:13:30;4.90;99.90
12115;DHT22;6121;49.810;6.418;2024-02-28T02:15:56;4.90;99.90
12115;DHT22;6121;49.810;6.418;2024-02-28T02:18:22;4.80;99.90
12115;DHT22;6121;49.810;6.418;2024-02-28T02:20:52;4.90;99.90
12115;DHT22;6121;49.810;6.418;2024-02-28T02:23:20;4.90;99.90
12115;DHT22;6121;49.810;6.418;2024-02-28T02:25:47;4.80;99.90
12115;DHT22;6121;49.810;6.418;2024-02-28T02:28:13;4.90;99.90
12115;DHT22;6121;49.810;6.418;2024-02-28T02:33:05;4.80;99.90
12115;DHT22;6121;49.810;6.418;2024-02-28T02:37:58;4.80;99.90
12115;DHT22;6121;49.810;6.418;2024-02-28T02:40:24;4.80;99.90
12115;DHT22;6121;49.810;6.418;2024-02-28T02:45:16;4.80;99.90
12115;DHT22;6121;49.810;6.418;2024-02-28T02:47:42;4.90;99.90
12115;DHT22;6121;49.810;6.418;2024-02-28T02:50:10;4.80;99.90
12115;DHT22;6121;49.810;6.418;2024-02-28T02:52:36;4.80;99.90
12115;DHT22;6121;49.810;6.418;2024-02-28T02:57:28;4.90;99.90
12115;DHT22;6121;49.810;6.418;2024-02-28T02:59:56;4.80;99.90
12115;DHT22;6121;49.810;6.418;2024-02-28T03:02:22;4.80;99.90
12115;DHT22;6121;49.810;6.418;2024-02-28T03:04:48;4.60;99.90
12115;DHT22;6121;49.810;6.418;2024-02-28T03:07:14;4.70;99.90
12115;DHT22;6121;49.810;6.418;2024-02-28T03:09:40;4.70;99.90
12115;DHT22;6121;49.810;6.418;2024-02-28T03:12:07;4.60;99.90
12115;DHT22;6121;49.810;6.418;2024-02-28T03:16:59;4.70;99.90
12115;DHT22;6121;49.810;6.418;2024-02-28T03:21:51;4.70;99.90
12115;DHT22;6121;49.810;6.418;2024-02-28T03:29:10;4.70;99.90
12115;DHT22;6121;49.810;6.418;2024-02-28T03:31:35;4.70;99.90
12115;DHT22;6121;49.810;6.418;2024-02-28T03:34:01;4.70;99.90
12115;DHT22;6121;49.810;6.418;2024-02-28T03:36:28;4.70;99.90
12115;DHT22;6121;49.810;6.418;2024-02-28T03:38:54;4.60;99.90
12115;DHT22;6121;49.810;6.418;2024-02-28T03:41:20;4.70;99.90
12115;DHT22;6121;49.810;6.418;2024-02-28T03:48:39;4.60;99.90
12115;DHT22;6121;49.810;6.418;2024-02-28T03:51:04;4.60;99.90
12115;DHT22;6121;49.810;6.418;2024-02-28T03:53:30;4.60;99.90
12115;DHT22;6121;49.810;6.418;2024-02-28T03:55:56;4.60;99.90
12115;DHT22;6121;49.810;6.418;2024-02-28T04:00:48;4.60;99.90
12115;DHT22;6121;49.810;6.418;2024-02-28T04:03:14;4.60;99.90
12115;DHT22;6121;49.810;6.418;2024-02-28T04:05:40;4.50;99.90
12115;DHT22;6121;49.810;6.418;2024-02-28T04:10:33;4.60;99.90
12115;DHT22;6121;49.810;6.418;2024-02-28T04:12:59;4.60;99.90
12115;DHT22;6121;49.810;6.418;2024-02-28T04:15:25;4.70;99.90
12115;DHT22;6121;49.810;6.418;2024-02-28T04:17:52;4.50;99.90
12115;DHT22;6121;49.810;6.418;2024-02-28T04:22:44;4.50;99.90
12115;DHT22;6121;49.810;6.418;2024-02-28T04:27:36;4.50;99.90
12115;DHT22;6121;49.810;6.418;2024-02-28T04:30:03;4.30;99.90
12115;DHT22;6121;49.810;6.418;2024-02-28T04:32:29;4.40;99.90
12115;DHT22;6121;49.810;6.418;2024-02-28T04:34:55;5.20;99.90
12115;DHT22;6121;49.810;6.418;2024-02-28T04:37:22;4.40;99.90
12115;DHT22;6121;49.810;6.418;2024-02-28T04:39:47;4.50;99.90
12115;DHT22;6121;49.810;6.418;2024-02-28T04:42:14;4.50;99.90
12115;DHT22;6121;49.810;6.418;2024-02-28T04:47:06;4.50;99.90
12115;DHT22;6121;49.810;6.418;2024-02-28T04:49:31;4.40;99.90
12115;DHT22;6121;49.810;6.418;2024-02-28T04:51:57;4.50;99.90
12115;DHT22;6121;49.810;6.418;2024-02-28T04:54:24;4.40;99.90
12115;DHT22;6121;49.810;6.418;2024-02-28T04:56:50;4.40;99.90
12115;DHT22;6121;49.810;6.418;2024-02-28T05:01:43;4.50;99.90
12115;DHT22;6121;49.810;6.418;2024-02-28T05:09:03;4.50;99.90
12115;DHT22;6121;49.810;6.418;2024-02-28T05:11:29;4.40;99.90
12115;DHT22;6121;49.810;6.418;2024-02-28T05:16:21;4.40;99.90
12115;DHT22;6121;49.810;6.418;2024-02-28T05:18:47;4.40;99.90
12115;DHT22;6121;49.810;6.418;2024-02-28T05:23:40;4.40;99.90
12115;DHT22;6121;49.810;6.418;2024-02-28T05:26:06;4.40;99.90
12115;DHT22;6121;49.810;6.418;2024-02-28T05:28:36;4.50;99.90
12115;DHT22;6121;49.810;6.418;2024-02-28T05:31:21;4.40;99.90
12115;DHT22;6121;49.810;6.418;2024-02-28T05:33:47;4.50;99.90
12115;DHT22;6121;49.810;6.418;2024-02-28T05:36:13;4.60;99.90
12115;DHT22;6121;49.810;6.418;2024-02-28T05:38:39;4.50;99.90
12115;DHT22;6121;49.810;6.418;2024-02-28T05:41:05;4.60;99.90
12115;DHT22;6121;49.810;6.418;2024-02-28T05:43:30;4.60;99.90
12115;DHT22;6121;49.810;6.418;2024-02-28T05:45:56;4.60;99.90
12115;DHT22;6121;49.810;6.418;2024-02-28T05:48:22;4.30;99.90
12115;DHT22;6121;49.810;6.418;2024-02-28T05:50:48;4.40;99.90
12115;DHT22;6121;49.810;6.418;2024-02-28T05:53:14;4.30;99.90
12115;DHT22;6121;49.810;6.418;2024-02-28T05:55:40;4.40;99.90
12115;DHT22;6121;49.810;6.418;2024-02-28T06:02:58;4.60;99.90
12115;DHT22;6121;49.810;6.418;2024-02-28T06:05:24;4.30;99.90
12115;DHT22;6121;49.810;6.418;2024-02-28T06:07:50;4.40;99.90
12115;DHT22;6121;49.810;6.418;2024-02-28T06:10:16;4.40;99.90
12115;DHT22;6121;49.810;6.418;2024-02-28T06:12:42;4.40;99.90
12115;DHT22;6121;49.810;6.418;2024-02-28T06:15:08;4.30;99.90
12115;DHT22;6121;49.810;6.418;2024-02-28T06:20:00;4.30;99.90
12115;DHT22;6121;49.810;6.418;2024-02-28T06:22:26;4.30;99.90
12115;DHT22;6121;49.810;6.418;2024-02-28T06:24:52;4.50;99.90
12115;DHT22;6121;49.810;6.418;2024-02-28T06:27:18;4.30;99.90
12115;DHT22;6121;49.810;6.418;2024-02-28T06:29:44;4.30;99.90
12115;DHT22;6121;49.810;6.418;2024-02-28T06:32:10;4.50;99.90
12115;DHT22;6121;49.810;6.418;2024-02-28T06:34:36;4.40;99.90
12115;DHT22;6121;49.810;6.418;2024-02-28T06:37:02;4.30;99.90
12115;DHT22;6121;49.810;6.418;2024-02-28T06:39:29;4.20;99.90
12115;DHT22;6121;49.810;6.418;2024-02-28T06:41:55;4.20;99.90
12115;DHT22;6121;49.810;6.418;2024-02-28T06:44:21;4.20;99.90
12115;DHT22;6121;49.810;6.418;2024-02-28T06:46:46;4.20;99.90
12115;DHT22;6121;49.810;6.418;2024-02-28T06:49:12;4.40;99.90
12115;DHT22;6121;49.810;6.418;2024-02-28T06:51:38;4.20;99.90
12115;DHT22;6121;49.810;6.418;2024-02-28T06:54:04;4.20;99.90
12115;DHT22;6121;49.810;6.418;2024-02-28T06:56:30;4.30;99.90
12115;DHT22;6121;49.810;6.418;2024-02-28T07:01:22;4.10;99.90
12115;DHT22;6121;49.810;6.418;2024-02-28T07:03:48;4.10;99.90
12115;DHT22;6121;49.810;6.418;2024-02-28T07:06:14;4.10;99.90
12115;DHT22;6121;49.810;6.418;2024-02-28T07:08:40;4.10;99.90
12115;DHT22;6121;49.810;6.418;2024-02-28T07:11:25;4.10;99.90
12115;DHT22;6121;49.810;6.418;2024-02-28T07:13:51;4.20;99.90
12115;DHT22;6121;49.810;6.418;2024-02-28T07:16:16;4.10;99.90
12115;DHT22;6121;49.810;6.418;2024-02-28T07:18:42;4.20;99.90
12115;DHT22;6121;49.810;6.418;2024-02-28T07:21:08;4.20;99.90
12115;DHT22;6121;49.810;6.418;2024-02-28T07:23:34;4.20;99.90
12115;DHT22;6121;49.810;6.418;2024-02-28T07:30:53;4.10;99.90
12115;DHT22;6121;49.810;6.418;2024-02-28T07:35:46;4.10;99.90
12115;DHT22;6121;49.810;6.418;2024-02-28T07:40:38;4.10;99.90
12115;DHT22;6121;49.810;6.418;2024-02-28T07:43:04;4.10;99.90
12115;DHT22;6121;49.810;6.418;2024-02-28T07:45:30;4.10;99.90
12115;DHT22;6121;49.810;6.418;2024-02-28T07:47:56;4.10;99.90
12115;DHT22;6121;49.810;6.418;2024-02-28T07:52:48;4.10;99.90
12115;DHT22;6121;49.810;6.418;2024-02-28T07:55:14;4.10;99.90
12115;DHT22;6121;49.810;6.418;2024-02-28T07:57:40;4.00;99.90
12115;DHT22;6121;49.810;6.418;2024-02-28T08:02:38;4.10;99.90
12115;DHT22;6121;49.810;6.418;2024-02-28T08:05:04;4.10;99.90
12115;DHT22;6121;49.810;6.418;2024-02-28T08:07:33;4.20;99.90
12115;DHT22;6121;49.810;6.418;2024-02-28T08:12:25;4.30;99.90
12115;DHT22;6121;49.810;6.418;2024-02-28T08:14:51;4.20;99.90
12115;DHT22;6121;49.810;6.418;2024-02-28T08:17:17;4.30;99.90
12115;DHT22;6121;49.810;6.418;2024-02-28T08:19:42;4.30;99.90
12115;DHT22;6121;49.810;6.418;2024-02-28T08:22:09;4.20;99.90
12115;DHT22;6121;49.810;6.418;2024-02-28T08:27:03;4.20;99.90
12115;DHT22;6121;49.810;6.418;2024-02-28T08:29:29;4.30;99.90
12115;DHT22;6121;49.810;6.418;2024-02-28T08:31:55;4.20;99.90
12115;DHT22;6121;49.810;6.418;2024-02-28T08:34:21;4.20;99.90
12115;DHT22;6121;49.810;6.418;2024-02-28T08:36:46;4.30;99.90
12115;DHT22;6121;49.810;6.418;2024-02-28T08:39:12;4.20;99.90
12115;DHT22;6121;49.810;6.418;2024-02-28T08:46:31;4.30;99.90
12115;DHT22;6121;49.810;6.418;2024-02-28T08:48:56;4.30;99.90
12115;DHT22;6121;49.810;6.418;2024-02-28T08:51:22;4.20;99.90
12115;DHT22;6121;49.810;6.418;2024-02-28T08:53:48;4.30;99.90
12115;DHT22;6121;49.810;6.418;2024-02-28T08:56:14;4.30;99.90
12115;DHT22;6121;49.810;6.418;2024-02-28T08:58:40;4.30;99.90
12115;DHT22;6121;49.810;6.418;2024-02-28T09:01:06;4.30;99.90
12115;DHT22;6121;49.810;6.418;2024-02-28T09:03:31;4.20;99.90
12115;DHT22;6121;49.810;6.418;2024-02-28T09:05:57;4.20;99.90
12115;DHT22;6121;49.810;6.418;2024-02-28T09:10:49;4.10;99.90
12115;DHT22;6121;49.810;6.418;2024-02-28T09:18:09;4.00;99.90
12115;DHT22;6121;49.810;6.418;2024-02-28T09:23:02;4.20;99.90
12115;DHT22;6121;49.810;6.418;2024-02-28T09:27:54;4.50;99.90
12115;DHT22;6121;49.810;6.418;2024-02-28T09:30:20;4.30;99.90
12115;DHT22;6121;49.810;6.418;2024-02-28T09:35:14;4.50;99.90
12115;DHT22;6121;49.810;6.418;2024-02-28T09:37:40;4.50;99.90
12115;DHT22;6121;49.810;6.418;2024-02-28T09:42:34;4.50;99.90
12115;DHT22;6121;49.810;6.418;2024-02-28T09:45:01;4.50;99.90
12115;DHT22;6121;49.810;6.418;2024-02-28T09:49:57;4.40;99.90
12115;DHT22;6121;49.810;6.418;2024-02-28T09:52:24;4.50;99.90
12115;DHT22;6121;49.810;6.418;2024-02-28T09:54:50;4.40;99.90
12115;DHT22;6121;49.810;6.418;2024-02-28T09:57:16;4.30;99.90
12115;DHT22;6121;49.810;6.418;2024-02-28T10:02:10;4.40;99.90
12115;DHT22;6121;49.810;6.418;2024-02-28T10:04:37;4.30;99.90
12115;DHT22;6121;49.810;6.418;2024-02-28T10:07:11;4.70;99.90
12115;DHT22;6121;49.810;6.418;2024-02-28T10:09:39;4.70;99.90
12115;DHT22;6121;49.810;6.418;2024-02-28T10:12:06;4.90;99.90
12115;DHT22;6121;49.810;6.418;2024-02-28T10:16:58;4.90;99.90
12115;DHT22;6121;49.810;6.418;2024-02-28T10:19:23;4.90;99.90
12115;DHT22;6121;49.810;6.418;2024-02-28T10:21:50;4.90;99.90
12115;DHT22;6121;49.810;6.418;2024-02-28T10:24:16;4.90;99.90
12115;DHT22;6121;49.810;6.418;2024-02-28T10:26:46;4.90;99.90
12115;DHT22;6121;49.810;6.418;2024-02-28T10:29:30;5.00;99.90
12115;DHT22;6121;49.810;6.418;2024-02-28T10:34:26;5.20;99.90
12115;DHT22;6121;49.810;6.418;2024-02-28T10:39:18;5.30;99.90
12115;DHT22;6121;49.810;6.418;2024-02-28T10:41:47;5.30;99.90
12115;DHT22;6121;49.810;6.418;2024-02-28T10:46:44;5.40;99.90
12115;DHT22;6121;49.810;6.418;2024-02-28T10:49:10;5.50;99.90
12115;DHT22;6121;49.810;6.418;2024-02-28T10:51:36;5.50;99.90
12115;DHT22;6121;49.810;6.418;2024-02-28T10:56:42;5.50;99.90
12115;DHT22;6121;49.810;6.418;2024-02-28T10:59:10;5.40;99.90
12115;DHT22;6121;49.810;6.418;2024-02-28T11:04:03;5.20;99.90
12115;DHT22;6121;49.810;6.418;2024-02-28T11:06:30;5.10;99.90
12115;DHT22;6121;49.810;6.418;2024-02-28T11:09:02;5.10;99.90
12115;DHT22;6121;49.810;6.418;2024-02-28T11:13:59;5.20;99.90
12115;DHT22;6121;49.810;6.418;2024-02-28T11:16:29;5.20;99.90
12115;DHT22;6121;49.810;6.418;2024-02-28T11:18:57;5.20;99.90
12115;DHT22;6121;49.810;6.418;2024-02-28T11:21:24;5.30;99.90
12115;DHT22;6121;49.810;6.418;2024-02-28T11:23:57;5.50;99.90
12115;DHT22;6121;49.810;6.418;2024-02-28T11:26:24;5.70;99.90
12115;DHT22;6121;49.810;6.418;2024-02-28T11:28:51;5.80;99.90
12115;DHT22;6121;49.810;6.418;2024-02-28T11:31:16;5.70;99.90
12115;DHT22;6121;49.810;6.418;2024-02-28T11:33:44;5.80;99.90
12115;DHT22;6121;49.810;6.418;2024-02-28T11:36:14;5.40;99.90
12115;DHT22;6121;49.810;6.418;2024-02-28T11:38:40;5.90;99.90
12115;DHT22;6121;49.810;6.418;2024-02-28T11:41:07;5.60;99.90
12115;DHT22;6121;49.810;6.418;2024-02-28T11:43:33;5.50;99.90
12115;DHT22;6121;49.810;6.418;2024-02-28T11:50:53;5.80;99.90
12115;DHT22;6121;49.810;6.418;2024-02-28T11:55:47;5.80;99.90
12115;DHT22;6121;49.810;6.418;2024-02-28T11:58:14;5.70;99.90
12115;DHT22;6121;49.810;6.418;2024-02-28T12:00:48;5.90;99.90
12115;DHT22;6121;49.810;6.418;2024-02-28T12:05:43;6.50;99.90
12115;DHT22;6121;49.810;6.418;2024-02-28T12:08:11;6.70;99.90
12115;DHT22;6121;49.810;6.418;2024-02-28T12:10:37;6.70;99.90
12115;DHT22;6121;49.810;6.418;2024-02-28T12:20:24;6.80;99.90
12115;DHT22;6121;49.810;6.418;2024-02-28T12:22:49;7.00;99.90
12115;DHT22;6121;49.810;6.418;2024-02-28T12:25:15;7.50;99.90
12115;DHT22;6121;49.810;6.418;2024-02-28T12:32:34;8.80;99.90
12115;DHT22;6121;49.810;6.418;2024-02-28T12:35:00;9.40;99.90
12115;DHT22;6121;49.810;6.418;2024-02-28T12:37:26;10.00;99.90
12115;DHT22;6121;49.810;6.418;2024-02-28T12:39:53;10.00;99.90
12115;DHT22;6121;49.810;6.418;2024-02-28T12:42:19;9.60;99.90
12115;DHT22;6121;49.810;6.418;2024-02-28T12:44:45;9.40;99.90
12115;DHT22;6121;49.810;6.418;2024-02-28T12:47:12;9.80;99.90
12115;DHT22;6121;49.810;6.418;2024-02-28T12:49:38;9.60;99.90
12115;DHT22;6121;49.810;6.418;2024-02-28T12:54:30;9.90;99.90
12115;DHT22;6121;49.810;6.418;2024-02-28T12:56:56;9.50;99.90
12115;DHT22;6121;49.810;6.418;2024-02-28T12:59:22;9.40;99.90
12115;DHT22;6121;49.810;6.418;2024-02-28T13:01:48;9.10;99.90
12115;DHT22;6121;49.810;6.418;2024-02-28T13:06:40;9.60;99.90
12115;DHT22;6121;49.810;6.418;2024-02-28T13:09:06;9.40;99.90
12115;DHT22;6121;49.810;6.418;2024-02-28T13:14:05;9.70;99.90
12115;DHT22;6121;49.810;6.418;2024-02-28T13:16:31;9.60;99.90
12115;DHT22;6121;49.810;6.418;2024-02-28T13:18:57;9.90;99.90
12115;DHT22;6121;49.810;6.418;2024-02-28T13:21:22;10.20;99.90
12115;DHT22;6121;49.810;6.418;2024-02-28T13:23:48;10.40;99.90
12115;DHT22;6121;49.810;6.418;2024-02-28T13:26:15;10.70;99.90
12115;DHT22;6121;49.810;6.418;2024-02-28T13:28:44;10.70;99.90
12115;DHT22;6121;49.810;6.418;2024-02-28T13:31:10;10.20;99.90
12115;DHT22;6121;49.810;6.418;2024-02-28T13:36:03;9.40;99.90
12115;DHT22;6121;49.810;6.418;2024-02-28T13:38:29;9.30;99.90
12115;DHT22;6121;49.810;6.418;2024-02-28T13:40:56;9.70;99.90
12115;DHT22;6121;49.810;6.418;2024-02-28T13:45:49;10.20;99.90
12115;DHT22;6121;49.810;6.418;2024-02-28T13:48:17;9.90;99.90
12115;DHT22;6121;49.810;6.418;2024-02-28T13:53:11;10.10;99.90
12115;DHT22;6121;49.810;6.418;2024-02-28T13:55:38;9.70;99.90
12115;DHT22;6121;49.810;6.418;2024-02-28T13:58:04;9.60;99.90
12115;DHT22;6121;49.810;6.418;2024-02-28T14:00:32;9.60;99.90
12115;DHT22;6121;49.810;6.418;2024-02-28T14:05:29;10.10;99.90
12115;DHT22;6121;49.810;6.418;2024-02-28T14:07:56;10.40;99.90
12115;DHT22;6121;49.810;6.418;2024-02-28T14:10:23;10.20;99.90
12115;DHT22;6121;49.810;6.418;2024-02-28T14:12:49;9.90;99.90
12115;DHT22;6121;49.810;6.418;2024-02-28T14:15:19;9.90;99.90
12115;DHT22;6121;49.810;6.418;2024-02-28T14:17:45;10.20;99.90
12115;DHT22;6121;49.810;6.418;2024-02-28T14:20:11;10.20;99.90
12115;DHT22;6121;49.810;6.418;2024-02-28T14:22:38;10.10;99.90
12115;DHT22;6121;49.810;6.418;2024-02-28T14:25:11;10.10;99.90
12115;DHT22;6121;49.810;6.418;2024-02-28T14:30:07;9.90;99.90
12115;DHT22;6121;49.810;6.418;2024-02-28T14:37:35;9.70;99.90
12115;DHT22;6121;49.810;6.418;2024-02-28T14:40:05;9.60;99.90
12115;DHT22;6121;49.810;6.418;2024-02-28T14:42:43;9.50;99.90
12115;DHT22;6121;49.810;6.418;2024-02-28T14:45:10;9.60;99.90
12115;DHT22;6121;49.810;6.418;2024-02-28T14:50:03;9.80;99.90
12115;DHT22;6121;49.810;6.418;2024-02-28T14:52:29;9.90;99.90
12115;DHT22;6121;49.810;6.418;2024-02-28T14:54:56;9.80;99.90
12115;DHT22;6121;49.810;6.418;2024-02-28T14:59:48;9.70;99.90
12115;DHT22;6121;49.810;6.418;2024-02-28T15:02:14;9.70;99.90
12115;DHT22;6121;49.810;6.418;2024-02-28T15:04:40;10.00;99.90
12115;DHT22;6121;49.810;6.418;2024-02-28T15:07:06;9.90;99.90
12115;DHT22;6121;49.810;6.418;2024-02-28T15:09:32;9.80;99.90
12115;DHT22;6121;49.810;6.418;2024-02-28T15:16:52;9.80;99.90
12115;DHT22;6121;49.810;6.418;2024-02-28T15:21:47;9.80;99.90
12115;DHT22;6121;49.810;6.418;2024-02-28T15:29:06;9.60;99.90
12115;DHT22;6121;49.810;6.418;2024-02-28T15:31:32;9.50;99.90
12115;DHT22;6121;49.810;6.418;2024-02-28T15:33:58;9.70;99.90
12115;DHT22;6121;49.810;6.418;2024-02-28T15:36:24;9.60;99.90
12115;DHT22;6121;49.810;6.418;2024-02-28T15:38:50;9.60;99.90
12115;DHT22;6121;49.810;6.418;2024-02-28T15:43:45;9.70;99.90
12115;DHT22;6121;49.810;6.418;2024-02-28T15:48:40;9.50;99.90
12115;DHT22;6121;49.810;6.418;2024-02-28T15:51:07;10.10;99.90
12115;DHT22;6121;49.810;6.418;2024-02-28T15:53:33;9.50;99.90
12115;DHT22;6121;49.810;6.418;2024-02-28T15:56:01;9.40;99.90
12115;DHT22;6121;49.810;6.418;2024-02-28T15:58:27;9.40;99.90
12115;DHT22;6121;49.810;6.418;2024-02-28T16:00:54;9.00;99.90
12115;DHT22;6121;49.810;6.418;2024-02-28T16:03:20;9.30;99.90
12115;DHT22;6121;49.810;6.418;2024-02-28T16:05:46;9.90;99.90
12115;DHT22;6121;49.810;6.418;2024-02-28T16:08:12;9.30;99.90
12115;DHT22;6121;49.810;6.418;2024-02-28T16:15:32;9.30;99.90
12115;DHT22;6121;49.810;6.418;2024-02-28T16:17:59;8.90;99.90
12115;DHT22;6121;49.810;6.418;2024-02-28T16:20:25;9.00;99.90
12115;DHT22;6121;49.810;6.418;2024-02-28T16:22:51;9.00;99.90
12115;DHT22;6121;49.810;6.418;2024-02-28T16:27:43;9.10;99.90
12115;DHT22;6121;49.810;6.418;2024-02-28T16:30:09;8.90;99.90
12115;DHT22;6121;49.810;6.418;2024-02-28T16:32:35;8.90;99.90
12115;DHT22;6121;49.810;6.418;2024-02-28T16:35:01;8.90;99.90
12115;DHT22;6121;49.810;6.418;2024-02-28T16:39:53;9.00;99.90
12115;DHT22;6121;49.810;6.418;2024-02-28T16:47:11;8.90;99.90
12115;DHT22;6121;49.810;6.418;2024-02-28T16:49:38;8.90;99.90
12115;DHT22;6121;49.810;6.418;2024-02-28T16:54:30;8.80;99.90
12115;DHT22;6121;49.810;6.418;2024-02-28T16:59:22;8.70;99.90
12115;DHT22;6121;49.810;6.418;2024-02-28T17:01:48;8.60;99.90
12115;DHT22;6121;49.810;6.418;2024-02-28T17:04:15;8.50;99.90
12115;DHT22;6121;49.810;6.418;2024-02-28T17:06:41;8.60;99.90
12115;DHT22;6121;49.810;6.418;2024-02-28T17:09:07;8.60;99.90
12115;DHT22;6121;49.810;6.418;2024-02-28T17:11:35;8.30;99.90
12115;DHT22;6121;49.810;6.418;2024-02-28T17:14:01;8.40;99.90
12115;DHT22;6121;49.810;6.418;2024-02-28T17:16:27;8.60;99.90
12115;DHT22;6121;49.810;6.418;2024-02-28T17:18:53;8.30;99.90
12115;DHT22;6121;49.810;6.418;2024-02-28T17:21:19;8.20;99.90
12115;DHT22;6121;49.810;6.418;2024-02-28T17:23:45;8.10;99.90
12115;DHT22;6121;49.810;6.418;2024-02-28T17:26:11;8.00;99.90
12115;DHT22;6121;49.810;6.418;2024-02-28T17:31:03;8.00;99.90
12115;DHT22;6121;49.810;6.418;2024-02-28T17:35:56;7.60;99.90
12115;DHT22;6121;49.810;6.418;2024-02-28T17:38:22;7.80;99.90
12115;DHT22;6121;49.810;6.418;2024-02-28T17:40:48;7.80;99.90
12115;DHT22;6121;49.810;6.418;2024-02-28T17:43:14;7.80;99.90
12115;DHT22;6121;49.810;6.418;2024-02-28T17:45:41;7.70;99.90
12115;DHT22;6121;49.810;6.418;2024-02-28T17:48:07;7.70;99.90
12115;DHT22;6121;49.810;6.418;2024-02-28T17:52:59;7.50;99.90
12115;DHT22;6121;49.810;6.418;2024-02-28T17:55:25;7.50;99.90
12115;DHT22;6121;49.810;6.418;2024-02-28T18:02:53;7.40;99.90
12115;DHT22;6121;49.810;6.418;2024-02-28T18:05:19;7.30;99.90
12115;DHT22;6121;49.810;6.418;2024-02-28T18:07:46;7.30;99.90
12115;DHT22;6121;49.810;6.418;2024-02-28T18:10:11;7.10;99.90
12115;DHT22;6121;49.810;6.418;2024-02-28T18:17:35;7.20;99.90
12115;DHT22;6121;49.810;6.418;2024-02-28T18:20:02;7.20;99.90
12115;DHT22;6121;49.810;6.418;2024-02-28T18:22:33;7.10;99.90
12115;DHT22;6121;49.810;6.418;2024-02-28T18:27:27;7.00;99.90
12115;DHT22;6121;49.810;6.418;2024-02-28T18:29:53;6.80;99.90
12115;DHT22;6121;49.810;6.418;2024-02-28T18:32:19;6.90;99.90
12115;DHT22;6121;49.810;6.418;2024-02-28T18:34:44;7.20;99.90
12115;DHT22;6121;49.810;6.418;2024-02-28T18:37:11;6.90;99.90
12115;DHT22;6121;49.810;6.418;2024-02-28T18:42:05;6.80;99.90
12115;DHT22;6121;49.810;6.418;2024-02-28T18:44:33;6.90;99.90
12115;DHT22;6121;49.810;6.418;2024-02-28T18:46:59;6.80;99.90
12115;DHT22;6121;49.810;6.418;2024-02-28T18:49:26;6.80;99.90
12115;DHT22;6121;49.810;6.418;2024-02-28T18:51:52;6.70;99.90
12115;DHT22;6121;49.810;6.418;2024-02-28T18:54:18;6.50;99.90
12115;DHT22;6121;49.810;6.418;2024-02-28T18:56:44;6.60;99.90
12115;DHT22;6121;49.810;6.418;2024-02-28T18:59:10;6.70;99.90
12115;DHT22;6121;49.810;6.418;2024-02-28T19:01:36;6.60;99.90
12115;DHT22;6121;49.810;6.418;2024-02-28T19:08:54;6.60;99.90
12115;DHT22;6121;49.810;6.418;2024-02-28T19:11:21;6.60;99.90
12115;DHT22;6121;49.810;6.418;2024-02-28T19:13:48;6.60;99.90
12115;DHT22;6121;49.810;6.418;2024-02-28T19:16:14;6.40;99.90
12115;DHT22;6121;49.810;6.418;2024-02-28T19:18:41;6.60;99.90
12115;DHT22;6121;49.810;6.418;2024-02-28T19:21:07;6.60;99.90
12115;DHT22;6121;49.810;6.418;2024-02-28T19:26:00;6.20;99.90
12115;DHT22;6121;49.810;6.418;2024-02-28T19:28:26;6.50;99.90
12115;DHT22;6121;49.810;6.418;2024-02-28T19:30:53;6.60;99.90
12115;DHT22;6121;49.810;6.418;2024-02-28T19:33:18;6.60;99.90
12115;DHT22;6121;49.810;6.418;2024-02-28T19:38:13;6.50;99.90
12115;DHT22;6121;49.810;6.418;2024-02-28T19:45:33;6.40;99.90
12115;DHT22;6121;49.810;6.418;2024-02-28T19:47:59;6.40;99.90
12115;DHT22;6121;49.810;6.418;2024-02-28T19:52:51;6.30;99.90
12115;DHT22;6121;49.810;6.418;2024-02-28T19:55:17;6.40;99.90
12115;DHT22;6121;49.810;6.418;2024-02-28T19:57:43;6.30;99.90
12115;DHT22;6121;49.810;6.418;2024-02-28T20:00:09;6.40;99.90
12115;DHT22;6121;49.810;6.418;2024-02-28T20:02:37;6.30;99.90
12115;DHT22;6121;49.810;6.418;2024-02-28T20:09:58;6.20;99.90
12115;DHT22;6121;49.810;6.418;2024-02-28T20:12:24;6.30;99.90
12115;DHT22;6121;49.810;6.418;2024-02-28T20:14:50;6.30;99.90
12115;DHT22;6121;49.810;6.418;2024-02-28T20:17:16;6.50;99.90
12115;DHT22;6121;49.810;6.418;2024-02-28T20:19:42;6.20;99.90
12115;DHT22;6121;49.810;6.418;2024-02-28T20:22:09;6.20;99.90
12115;DHT22;6121;49.810;6.418;2024-02-28T20:27:01;6.10;99.90
12115;DHT22;6121;49.810;6.418;2024-02-28T20:29:27;6.10;99.90
12115;DHT22;6121;49.810;6.418;2024-02-28T20:34:19;6.00;99.90